sensor_id;sensor_type;location;lat;lon;timestamp;P1;durP1;ratioP1;P2;durP2;ratioP2
48809;SDS011;40070;47.322;18.784;2024-01-07T00:00:29;16.06;;;7.38;;
48809;SDS011;40070;47.322;18.784;2024-01-07T00:02:26;11.27;;;6.28;;
48809;SDS011;40070;47.322;18.784;2024-01-07T00:04:27;12.16;;;6.68;;
48809;SDS011;40070;47.322;18.784;2024-01-07T00:06:28;14.21;;;6.88;;
48809;SDS011;40070;47.322;18.784;2024-01-07T00:08:29;12.47;;;6.28;;
48809;SDS011;40070;47.322;18.784;2024-01-07T00:10:30;12.37;;;6.88;;
48809;SDS011;40070;47.322;18.784;2024-01-07T00:12:31;12.67;;;6.68;;
48809;SDS011;40070;47.322;18.784;2024-01-07T00:14:32;13.16;;;6.58;;
48809;SDS011;40070;47.322;18.784;2024-01-07T00:16:33;11.77;;;6.28;;
48809;SDS011;40070;47.322;18.784;2024-01-07T00:18:34;11.28;;;5.38;;
48809;SDS011;40070;47.322;18.784;2024-01-07T00:20:36;12.05;;;6.78;;
48809;SDS011;40070;47.322;18.784;2024-01-07T00:22:37;14.88;;;6.78;;
48809;SDS011;40070;47.322;18.784;2024-01-07T00:24:38;12.75;;;6.58;;
48809;SDS011;40070;47.322;18.784;2024-01-07T00:26:39;12.64;;;6.08;;
48809;SDS011;40070;47.322;18.784;2024-01-07T00:28:40;12.86;;;6.58;;
48809;SDS011;40070;47.322;18.784;2024-01-07T00:30:41;14.69;;;6.78;;
48809;SDS011;40070;47.322;18.784;2024-01-07T00:32:42;12.55;;;6.68;;
48809;SDS011;40070;47.322;18.784;2024-01-07T00:34:43;13.41;;;6.38;;
48809;SDS011;40070;47.322;18.784;2024-01-07T00:36:44;16.05;;;7.38;;
48809;SDS011;40070;47.322;18.784;2024-01-07T00:38:45;14.21;;;6.48;;
48809;SDS011;40070;47.322;18.784;2024-01-07T00:40:46;14.56;;;6.77;;
48809;SDS011;40070;47.322;18.784;2024-01-07T00:42:47;16.13;;;7.17;;
48809;SDS011;40070;47.322;18.784;2024-01-07T00:44:48;14.22;;;6.92;;
48809;SDS011;40070;47.322;18.784;2024-01-07T00:46:49;16.06;;;7.22;;
48809;SDS011;40070;47.322;18.784;2024-01-07T00:48:50;12.18;;;6.63;;
48809;SDS011;40070;47.322;18.784;2024-01-07T00:50:51;13.40;;;6.73;;
48809;SDS011;40070;47.322;18.784;2024-01-07T00:52:52;14.57;;;6.92;;
48809;SDS011;40070;47.322;18.784;2024-01-07T00:54:53;12.02;;;7.12;;
48809;SDS011;40070;47.322;18.784;2024-01-07T00:56:56;13.88;;;7.10;;
48809;SDS011;40070;47.322;18.784;2024-01-07T00:58:57;14.51;;;7.77;;
48809;SDS011;40070;47.322;18.784;2024-01-07T01:00:58;14.27;;;6.31;;
48809;SDS011;40070;47.322;18.784;2024-01-07T01:02:59;16.21;;;7.79;;
48809;SDS011;40070;47.322;18.784;2024-01-07T01:05:00;12.12;;;6.19;;
48809;SDS011;40070;47.322;18.784;2024-01-07T01:07:01;13.30;;;7.28;;
48809;SDS011;40070;47.322;18.784;2024-01-07T01:09:02;13.44;;;6.40;;
48809;SDS011;40070;47.322;18.784;2024-01-07T01:11:03;13.01;;;7.00;;
48809;SDS011;40070;47.322;18.784;2024-01-07T01:13:04;13.57;;;6.98;;
48809;SDS011;40070;47.322;18.784;2024-01-07T01:15:05;14.18;;;6.61;;
48809;SDS011;40070;47.322;18.784;2024-01-07T01:17:06;16.75;;;6.59;;
48809;SDS011;40070;47.322;18.784;2024-01-07T01:19:07;12.01;;;6.20;;
48809;SDS011;40070;47.322;18.784;2024-01-07T01:21:09;14.38;;;7.19;;
48809;SDS011;40070;47.322;18.784;2024-01-07T01:23:09;13.28;;;7.19;;
48809;SDS011;40070;47.322;18.784;2024-01-07T01:25:10;15.19;;;7.10;;
48809;SDS011;40070;47.322;18.784;2024-01-07T01:27:11;15.09;;;7.51;;
48809;SDS011;40070;47.322;18.784;2024-01-07T01:29:12;11.52;;;6.52;;
48809;SDS011;40070;47.322;18.784;2024-01-07T01:31:13;14.34;;;7.30;;
48809;SDS011;40070;47.322;18.784;2024-01-07T01:33:14;14.87;;;6.91;;
48809;SDS011;40070;47.322;18.784;2024-01-07T01:35:15;13.37;;;6.91;;
48809;SDS011;40070;47.322;18.784;2024-01-07T01:37:16;12.27;;;5.82;;
48809;SDS011;40070;47.322;18.784;2024-01-07T01:39:17;12.77;;;7.69;;
48809;SDS011;40070;47.322;18.784;2024-01-07T01:41:24;12.73;;;6.11;;
48809;SDS011;40070;47.322;18.784;2024-01-07T01:43:25;13.81;;;6.99;;
48809;SDS011;40070;47.322;18.784;2024-01-07T01:45:26;12.77;;;6.90;;
48809;SDS011;40070;47.322;18.784;2024-01-07T01:47:28;15.95;;;7.00;;
48809;SDS011;40070;47.322;18.784;2024-01-07T01:49:28;15.12;;;6.91;;
48809;SDS011;40070;47.322;18.784;2024-01-07T01:51:29;11.98;;;6.31;;
48809;SDS011;40070;47.322;18.784;2024-01-07T01:53:30;11.76;;;5.51;;
48809;SDS011;40070;47.322;18.784;2024-01-07T01:55:31;14.44;;;6.41;;
48809;SDS011;40070;47.322;18.784;2024-01-07T01:57:35;11.56;;;5.33;;
48809;SDS011;40070;47.322;18.784;2024-01-07T01:59:33;12.24;;;5.52;;
48809;SDS011;40070;47.322;18.784;2024-01-07T02:01:34;10.91;;;5.90;;
48809;SDS011;40070;47.322;18.784;2024-01-07T02:03:35;11.21;;;5.99;;
48809;SDS011;40070;47.322;18.784;2024-01-07T02:05:36;11.50;;;5.80;;
48809;SDS011;40070;47.322;18.784;2024-01-07T02:07:37;12.00;;;6.10;;
48809;SDS011;40070;47.322;18.784;2024-01-07T02:09:39;8.77;;;4.82;;
48809;SDS011;40070;47.322;18.784;2024-01-07T02:12:04;11.15;;;5.81;;
48809;SDS011;40070;47.322;18.784;2024-01-07T02:13:50;9.64;;;5.12;;
48809;SDS011;40070;47.322;18.784;2024-01-07T02:15:51;11.29;;;5.12;;
48809;SDS011;40070;47.322;18.784;2024-01-07T02:17:52;10.92;;;5.10;;
48809;SDS011;40070;47.322;18.784;2024-01-07T02:19:53;10.37;;;5.22;;
48809;SDS011;40070;47.322;18.784;2024-01-07T02:21:54;9.43;;;4.92;;
48809;SDS011;40070;47.322;18.784;2024-01-07T02:23:55;9.52;;;4.82;;
48809;SDS011;40070;47.322;18.784;2024-01-07T02:25:56;8.92;;;5.01;;
48809;SDS011;40070;47.322;18.784;2024-01-07T02:27:57;9.59;;;5.70;;
48809;SDS011;40070;47.322;18.784;2024-01-07T02:29:58;8.46;;;4.42;;
48809;SDS011;40070;47.322;18.784;2024-01-07T02:31:59;7.73;;;3.97;;
48809;SDS011;40070;47.322;18.784;2024-01-07T02:34:00;9.85;;;4.64;;
48809;SDS011;40070;47.322;18.784;2024-01-07T02:36:01;8.43;;;4.35;;
48809;SDS011;40070;47.322;18.784;2024-01-07T02:38:02;6.77;;;3.74;;
48809;SDS011;40070;47.322;18.784;2024-01-07T02:40:03;8.69;;;3.93;;
48809;SDS011;40070;47.322;18.784;2024-01-07T02:42:04;7.28;;;3.52;;
48809;SDS011;40070;47.322;18.784;2024-01-07T02:44:05;6.95;;;3.63;;
48809;SDS011;40070;47.322;18.784;2024-01-07T02:46:06;7.14;;;3.83;;
48809;SDS011;40070;47.322;18.784;2024-01-07T02:48:08;6.23;;;3.43;;
48809;SDS011;40070;47.322;18.784;2024-01-07T02:50:09;6.95;;;3.33;;
48809;SDS011;40070;47.322;18.784;2024-01-07T02:52:10;7.16;;;3.44;;
48809;SDS011;40070;47.322;18.784;2024-01-07T02:54:11;6.43;;;3.54;;
48809;SDS011;40070;47.322;18.784;2024-01-07T02:56:12;5.68;;;2.94;;
48809;SDS011;40070;47.322;18.784;2024-01-07T02:58:13;6.58;;;2.94;;
48809;SDS011;40070;47.322;18.784;2024-01-07T03:00:14;4.49;;;2.45;;
48809;SDS011;40070;47.322;18.784;2024-01-07T03:02:15;4.65;;;2.45;;
48809;SDS011;40070;47.322;18.784;2024-01-07T03:04:16;5.89;;;2.95;;
48809;SDS011;40070;47.322;18.784;2024-01-07T03:06:17;6.33;;;2.85;;
48809;SDS011;40070;47.322;18.784;2024-01-07T03:08:18;4.50;;;2.45;;
48809;SDS011;40070;47.322;18.784;2024-01-07T03:10:21;4.80;;;2.46;;
48809;SDS011;40070;47.322;18.784;2024-01-07T03:12:22;4.17;;;2.36;;
48809;SDS011;40070;47.322;18.784;2024-01-07T03:14:23;4.56;;;2.37;;
48809;SDS011;40070;47.322;18.784;2024-01-07T03:16:24;4.75;;;2.76;;
48809;SDS011;40070;47.322;18.784;2024-01-07T03:18:26;4.38;;;2.17;;
48809;SDS011;40070;47.322;18.784;2024-01-07T03:20:27;4.07;;;2.16;;
48809;SDS011;40070;47.322;18.784;2024-01-07T03:22:28;5.44;;;2.16;;
48809;SDS011;40070;47.322;18.784;2024-01-07T03:24:29;4.89;;;2.26;;
48809;SDS011;40070;47.322;18.784;2024-01-07T03:26:30;4.62;;;2.16;;
48809;SDS011;40070;47.322;18.784;2024-01-07T03:28:31;5.08;;;2.46;;
48809;SDS011;40070;47.322;18.784;2024-01-07T03:30:32;4.45;;;2.17;;
48809;SDS011;40070;47.322;18.784;2024-01-07T03:32:33;4.75;;;2.07;;
48809;SDS011;40070;47.322;18.784;2024-01-07T03:34:34;3.72;;;2.07;;
48809;SDS011;40070;47.322;18.784;2024-01-07T03:36:39;5.33;;;2.57;;
48809;SDS011;40070;47.322;18.784;2024-01-07T03:38:40;4.59;;;2.07;;
48809;SDS011;40070;47.322;18.784;2024-01-07T03:40:41;3.86;;;2.18;;
48809;SDS011;40070;47.322;18.784;2024-01-07T03:42:42;3.76;;;2.08;;
48809;SDS011;40070;47.322;18.784;2024-01-07T03:44:43;4.80;;;2.27;;
48809;SDS011;40070;47.322;18.784;2024-01-07T03:46:44;4.33;;;2.08;;
48809;SDS011;40070;47.322;18.784;2024-01-07T03:48:45;4.30;;;2.37;;
48809;SDS011;40070;47.322;18.784;2024-01-07T03:50:46;4.99;;;2.67;;
48809;SDS011;40070;47.322;18.784;2024-01-07T03:52:47;5.57;;;2.57;;
48809;SDS011;40070;47.322;18.784;2024-01-07T03:54:48;6.27;;;2.58;;
48809;SDS011;40070;47.322;18.784;2024-01-07T03:56:49;7.51;;;2.68;;
48809;SDS011;40070;47.322;18.784;2024-01-07T03:58:50;5.78;;;2.87;;
48809;SDS011;40070;47.322;18.784;2024-01-07T04:00:51;5.83;;;2.87;;
48809;SDS011;40070;47.322;18.784;2024-01-07T04:02:52;3.85;;;2.08;;
48809;SDS011;40070;47.322;18.784;2024-01-07T04:04:53;5.24;;;2.37;;
48809;SDS011;40070;47.322;18.784;2024-01-07T04:06:54;5.08;;;2.57;;
48809;SDS011;40070;47.322;18.784;2024-01-07T04:08:55;4.21;;;2.37;;
48809;SDS011;40070;47.322;18.784;2024-01-07T04:10:56;4.49;;;2.57;;
48809;SDS011;40070;47.322;18.784;2024-01-07T04:12:57;3.56;;;1.88;;
48809;SDS011;40070;47.322;18.784;2024-01-07T04:14:58;4.50;;;2.37;;
48809;SDS011;40070;47.322;18.784;2024-01-07T04:16:59;3.93;;;2.17;;
48809;SDS011;40070;47.322;18.784;2024-01-07T04:19:00;4.41;;;2.17;;
48809;SDS011;40070;47.322;18.784;2024-01-07T04:21:01;4.31;;;1.68;;
48809;SDS011;40070;47.322;18.784;2024-01-07T04:23:02;3.56;;;1.88;;
48809;SDS011;40070;47.322;18.784;2024-01-07T04:25:03;3.28;;;1.58;;
48809;SDS011;40070;47.322;18.784;2024-01-07T04:27:04;4.70;;;1.78;;
48809;SDS011;40070;47.322;18.784;2024-01-07T04:29:05;3.11;;;1.68;;
48809;SDS011;40070;47.322;18.784;2024-01-07T04:31:06;5.48;;;2.08;;
48809;SDS011;40070;47.322;18.784;2024-01-07T04:33:07;3.87;;;1.78;;
48809;SDS011;40070;47.322;18.784;2024-01-07T04:35:08;3.74;;;1.88;;
48809;SDS011;40070;47.322;18.784;2024-01-07T04:37:09;5.90;;;1.88;;
48809;SDS011;40070;47.322;18.784;2024-01-07T04:39:10;3.56;;;1.88;;
48809;SDS011;40070;47.322;18.784;2024-01-07T04:41:11;3.71;;;1.97;;
48809;SDS011;40070;47.322;18.784;2024-01-07T04:43:12;4.00;;;1.97;;
48809;SDS011;40070;47.322;18.784;2024-01-07T04:45:13;3.74;;;1.58;;
48809;SDS011;40070;47.322;18.784;2024-01-07T04:47:24;3.49;;;1.78;;
48809;SDS011;40070;47.322;18.784;2024-01-07T04:49:15;2.91;;;1.38;;
48809;SDS011;40070;47.322;18.784;2024-01-07T04:51:16;4.75;;;1.78;;
48809;SDS011;40070;47.322;18.784;2024-01-07T04:53:17;3.92;;;1.69;;
48809;SDS011;40070;47.322;18.784;2024-01-07T04:55:18;3.54;;;1.69;;
48809;SDS011;40070;47.322;18.784;2024-01-07T04:57:19;2.97;;;1.49;;
48809;SDS011;40070;47.322;18.784;2024-01-07T04:59:20;3.06;;;1.39;;
48809;SDS011;40070;47.322;18.784;2024-01-07T05:01:21;3.65;;;1.69;;
48809;SDS011;40070;47.322;18.784;2024-01-07T05:03:22;3.55;;;1.69;;
48809;SDS011;40070;47.322;18.784;2024-01-07T05:05:23;3.54;;;1.49;;
48809;SDS011;40070;47.322;18.784;2024-01-07T05:07:24;3.73;;;1.69;;
48809;SDS011;40070;47.322;18.784;2024-01-07T05:09:25;3.25;;;1.49;;
48809;SDS011;40070;47.322;18.784;2024-01-07T05:11:26;3.44;;;1.49;;
48809;SDS011;40070;47.322;18.784;2024-01-07T05:13:26;3.92;;;1.59;;
48809;SDS011;40070;47.322;18.784;2024-01-07T05:15:27;4.20;;;1.69;;
48809;SDS011;40070;47.322;18.784;2024-01-07T05:17:29;4.01;;;1.69;;
48809;SDS011;40070;47.322;18.784;2024-01-07T05:19:29;4.10;;;1.49;;
48809;SDS011;40070;47.322;18.784;2024-01-07T05:21:30;3.63;;;1.59;;
48809;SDS011;40070;47.322;18.784;2024-01-07T05:23:31;4.85;;;2.18;;
48809;SDS011;40070;47.322;18.784;2024-01-07T05:25:32;4.97;;;2.28;;
48809;SDS011;40070;47.322;18.784;2024-01-07T05:27:33;5.36;;;2.58;;
48809;SDS011;40070;47.322;18.784;2024-01-07T05:29:34;5.65;;;3.18;;
48809;SDS011;40070;47.322;18.784;2024-01-07T05:31:35;5.35;;;2.48;;
48809;SDS011;40070;47.322;18.784;2024-01-07T05:33:36;5.41;;;2.87;;
48809;SDS011;40070;47.322;18.784;2024-01-07T05:35:37;6.11;;;2.88;;
48809;SDS011;40070;47.322;18.784;2024-01-07T05:37:38;5.63;;;2.58;;
48809;SDS011;40070;47.322;18.784;2024-01-07T05:39:39;5.43;;;2.48;;
48809;SDS011;40070;47.322;18.784;2024-01-07T05:41:40;4.95;;;2.68;;
48809;SDS011;40070;47.322;18.784;2024-01-07T05:43:41;5.23;;;2.68;;
48809;SDS011;40070;47.322;18.784;2024-01-07T05:45:42;5.33;;;2.48;;
48809;SDS011;40070;47.322;18.784;2024-01-07T05:47:43;5.99;;;2.97;;
48809;SDS011;40070;47.322;18.784;2024-01-07T05:49:44;5.31;;;2.38;;
48809;SDS011;40070;47.322;18.784;2024-01-07T05:51:45;6.85;;;2.88;;
48809;SDS011;40070;47.322;18.784;2024-01-07T05:53:46;5.73;;;2.68;;
48809;SDS011;40070;47.322;18.784;2024-01-07T05:55:47;5.64;;;2.28;;
48809;SDS011;40070;47.322;18.784;2024-01-07T05:57:48;5.92;;;2.68;;
48809;SDS011;40070;47.322;18.784;2024-01-07T05:59:49;6.22;;;2.88;;
48809;SDS011;40070;47.322;18.784;2024-01-07T06:01:51;7.07;;;3.38;;
48809;SDS011;40070;47.322;18.784;2024-01-07T06:03:52;6.91;;;3.37;;
48809;SDS011;40070;47.322;18.784;2024-01-07T06:05:53;7.81;;;3.66;;
48809;SDS011;40070;47.322;18.784;2024-01-07T06:07:54;7.06;;;3.46;;
48809;SDS011;40070;47.322;18.784;2024-01-07T06:09:55;7.64;;;4.26;;
48809;SDS011;40070;47.322;18.784;2024-01-07T06:11:56;6.72;;;3.55;;
48809;SDS011;40070;47.322;18.784;2024-01-07T06:13:57;6.74;;;3.25;;
48809;SDS011;40070;47.322;18.784;2024-01-07T06:15:58;6.33;;;3.42;;
48809;SDS011;40070;47.322;18.784;2024-01-07T06:17:59;5.86;;;3.22;;
48809;SDS011;40070;47.322;18.784;2024-01-07T06:20:00;6.72;;;3.31;;
48809;SDS011;40070;47.322;18.784;2024-01-07T06:22:01;7.27;;;3.73;;
48809;SDS011;40070;47.322;18.784;2024-01-07T06:24:08;6.40;;;3.18;;
48809;SDS011;40070;47.322;18.784;2024-01-07T06:26:07;6.18;;;3.00;;
48809;SDS011;40070;47.322;18.784;2024-01-07T06:28:09;6.26;;;3.39;;
48809;SDS011;40070;47.322;18.784;2024-01-07T06:30:10;4.75;;;2.81;;
48809;SDS011;40070;47.322;18.784;2024-01-07T06:32:15;3.87;;;2.41;;
48809;SDS011;40070;47.322;18.784;2024-01-07T06:34:16;4.94;;;2.83;;
48809;SDS011;40070;47.322;18.784;2024-01-07T06:36:17;5.09;;;2.62;;
48809;SDS011;40070;47.322;18.784;2024-01-07T06:38:18;4.84;;;2.61;;
48809;SDS011;40070;47.322;18.784;2024-01-07T06:40:19;4.16;;;2.65;;
48809;SDS011;40070;47.322;18.784;2024-01-07T06:42:20;4.97;;;2.55;;
48809;SDS011;40070;47.322;18.784;2024-01-07T06:44:21;5.20;;;2.45;;
48809;SDS011;40070;47.322;18.784;2024-01-07T06:46:22;4.07;;;2.28;;
48809;SDS011;40070;47.322;18.784;2024-01-07T06:48:22;3.77;;;2.18;;
48809;SDS011;40070;47.322;18.784;2024-01-07T06:50:23;4.42;;;2.61;;
48809;SDS011;40070;47.322;18.784;2024-01-07T06:52:24;4.26;;;2.27;;
48809;SDS011;40070;47.322;18.784;2024-01-07T06:54:25;4.69;;;2.19;;
48809;SDS011;40070;47.322;18.784;2024-01-07T06:56:26;4.51;;;2.54;;
48809;SDS011;40070;47.322;18.784;2024-01-07T06:58:27;4.17;;;2.63;;
48809;SDS011;40070;47.322;18.784;2024-01-07T07:00:28;3.59;;;2.11;;
48809;SDS011;40070;47.322;18.784;2024-01-07T07:02:29;5.29;;;2.51;;
48809;SDS011;40070;47.322;18.784;2024-01-07T07:04:30;3.88;;;2.50;;
48809;SDS011;40070;47.322;18.784;2024-01-07T07:06:31;4.93;;;2.51;;
48809;SDS011;40070;47.322;18.784;2024-01-07T07:08:32;3.60;;;2.08;;
48809;SDS011;40070;47.322;18.784;2024-01-07T07:10:34;3.80;;;2.16;;
48809;SDS011;40070;47.322;18.784;2024-01-07T07:12:35;4.54;;;2.24;;
48809;SDS011;40070;47.322;18.784;2024-01-07T07:14:36;3.31;;;2.25;;
48809;SDS011;40070;47.322;18.784;2024-01-07T07:16:37;4.27;;;2.49;;
48809;SDS011;40070;47.322;18.784;2024-01-07T07:18:38;3.83;;;1.98;;
48809;SDS011;40070;47.322;18.784;2024-01-07T07:20:39;4.62;;;2.30;;
48809;SDS011;40070;47.322;18.784;2024-01-07T07:22:40;3.79;;;1.99;;
48809;SDS011;40070;47.322;18.784;2024-01-07T07:24:41;3.85;;;1.99;;
48809;SDS011;40070;47.322;18.784;2024-01-07T07:26:42;3.97;;;2.15;;
48809;SDS011;40070;47.322;18.784;2024-01-07T07:28:43;4.23;;;2.75;;
48809;SDS011;40070;47.322;18.784;2024-01-07T07:30:44;4.11;;;2.56;;
48809;SDS011;40070;47.322;18.784;2024-01-07T07:32:45;4.11;;;2.45;;
48809;SDS011;40070;47.322;18.784;2024-01-07T07:34:46;4.73;;;2.86;;
48809;SDS011;40070;47.322;18.784;2024-01-07T07:36:47;4.10;;;2.48;;
48809;SDS011;40070;47.322;18.784;2024-01-07T07:38:48;5.70;;;3.04;;
48809;SDS011;40070;47.322;18.784;2024-01-07T07:40:49;5.36;;;3.03;;
48809;SDS011;40070;47.322;18.784;2024-01-07T07:42:50;4.32;;;2.82;;
48809;SDS011;40070;47.322;18.784;2024-01-07T07:44:51;4.93;;;2.78;;
48809;SDS011;40070;47.322;18.784;2024-01-07T07:46:52;4.51;;;2.31;;
48809;SDS011;40070;47.322;18.784;2024-01-07T07:48:53;4.09;;;2.84;;
48809;SDS011;40070;47.322;18.784;2024-01-07T07:50:54;3.90;;;2.48;;
48809;SDS011;40070;47.322;18.784;2024-01-07T07:52:55;3.75;;;2.19;;
48809;SDS011;40070;47.322;18.784;2024-01-07T07:54:56;3.38;;;1.88;;
48809;SDS011;40070;47.322;18.784;2024-01-07T07:56:57;3.55;;;1.71;;
48809;SDS011;40070;47.322;18.784;2024-01-07T07:58:58;2.77;;;1.84;;
48809;SDS011;40070;47.322;18.784;2024-01-07T08:00:59;5.07;;;2.22;;
48809;SDS011;40070;47.322;18.784;2024-01-07T08:03:00;3.26;;;2.06;;
48809;SDS011;40070;47.322;18.784;2024-01-07T08:05:01;3.71;;;2.06;;
48809;SDS011;40070;47.322;18.784;2024-01-07T08:07:02;4.01;;;1.92;;
48809;SDS011;40070;47.322;18.784;2024-01-07T08:09:03;3.55;;;1.76;;
48809;SDS011;40070;47.322;18.784;2024-01-07T08:11:04;4.98;;;2.55;;
48809;SDS011;40070;47.322;18.784;2024-01-07T08:13:05;3.09;;;1.92;;
48809;SDS011;40070;47.322;18.784;2024-01-07T08:15:07;3.39;;;1.85;;
48809;SDS011;40070;47.322;18.784;2024-01-07T08:17:07;3.62;;;2.03;;
48809;SDS011;40070;47.322;18.784;2024-01-07T08:19:08;3.60;;;1.89;;
48809;SDS011;40070;47.322;18.784;2024-01-07T08:21:09;3.73;;;1.81;;
48809;SDS011;40070;47.322;18.784;2024-01-07T08:23:10;3.36;;;2.04;;
48809;SDS011;40070;47.322;18.784;2024-01-07T08:25:11;2.93;;;1.53;;
48809;SDS011;40070;47.322;18.784;2024-01-07T08:27:12;4.00;;;1.70;;
48809;SDS011;40070;47.322;18.784;2024-01-07T08:29:13;4.02;;;1.87;;
48809;SDS011;40070;47.322;18.784;2024-01-07T08:31:15;3.60;;;1.39;;
48809;SDS011;40070;47.322;18.784;2024-01-07T08:33:16;3.02;;;1.41;;
48809;SDS011;40070;47.322;18.784;2024-01-07T08:35:17;3.36;;;1.41;;
48809;SDS011;40070;47.322;18.784;2024-01-07T08:37:18;2.59;;;1.65;;
48809;SDS011;40070;47.322;18.784;2024-01-07T08:39:19;3.02;;;1.54;;
48809;SDS011;40070;47.322;18.784;2024-01-07T08:41:20;4.48;;;1.62;;
48809;SDS011;40070;47.322;18.784;2024-01-07T08:43:21;2.80;;;1.62;;
48809;SDS011;40070;47.322;18.784;2024-01-07T08:45:22;5.28;;;1.30;;
48809;SDS011;40070;47.322;18.784;2024-01-07T08:47:23;3.31;;;1.39;;
48809;SDS011;40070;47.322;18.784;2024-01-07T08:49:24;2.85;;;1.53;;
48809;SDS011;40070;47.322;18.784;2024-01-07T08:51:25;2.79;;;1.37;;
48809;SDS011;40070;47.322;18.784;2024-01-07T08:53:26;1.80;;;1.05;;
48809;SDS011;40070;47.322;18.784;2024-01-07T08:55:26;1.96;;;1.22;;
48809;SDS011;40070;47.322;18.784;2024-01-07T08:57:27;2.60;;;1.30;;
48809;SDS011;40070;47.322;18.784;2024-01-07T08:59:28;3.03;;;1.55;;
48809;SDS011;40070;47.322;18.784;2024-01-07T09:01:29;2.37;;;1.14;;
48809;SDS011;40070;47.322;18.784;2024-01-07T09:03:31;3.05;;;1.39;;
48809;SDS011;40070;47.322;18.784;2024-01-07T09:05:31;2.38;;;1.31;;
48809;SDS011;40070;47.322;18.784;2024-01-07T09:07:32;3.05;;;1.15;;
48809;SDS011;40070;47.322;18.784;2024-01-07T09:09:33;5.17;;;1.56;;
48809;SDS011;40070;47.322;18.784;2024-01-07T09:11:35;4.12;;;2.24;;
48809;SDS011;40070;47.322;18.784;2024-01-07T09:13:36;4.49;;;2.30;;
48809;SDS011;40070;47.322;18.784;2024-01-07T09:15:37;5.35;;;2.62;;
48809;SDS011;40070;47.322;18.784;2024-01-07T09:17:38;6.36;;;2.78;;
48809;SDS011;40070;47.322;18.784;2024-01-07T09:19:39;3.19;;;1.64;;
48809;SDS011;40070;47.322;18.784;2024-01-07T09:21:40;3.22;;;1.65;;
48809;SDS011;40070;47.322;18.784;2024-01-07T09:23:41;3.35;;;1.40;;
48809;SDS011;40070;47.322;18.784;2024-01-07T09:25:42;3.02;;;1.32;;
48809;SDS011;40070;47.322;18.784;2024-01-07T09:27:43;2.83;;;1.33;;
48809;SDS011;40070;47.322;18.784;2024-01-07T09:29:44;2.67;;;1.49;;
48809;SDS011;40070;47.322;18.784;2024-01-07T09:31:45;3.01;;;1.40;;
48809;SDS011;40070;47.322;18.784;2024-01-07T09:33:46;4.26;;;2.07;;
48809;SDS011;40070;47.322;18.784;2024-01-07T09:35:47;5.09;;;2.32;;
48809;SDS011;40070;47.322;18.784;2024-01-07T09:37:48;3.98;;;1.90;;
48809;SDS011;40070;47.322;18.784;2024-01-07T09:39:49;3.51;;;1.49;;
48809;SDS011;40070;47.322;18.784;2024-01-07T09:41:50;3.52;;;2.00;;
48809;SDS011;40070;47.322;18.784;2024-01-07T09:43:51;4.33;;;2.41;;
48809;SDS011;40070;47.322;18.784;2024-01-07T09:45:53;3.44;;;2.08;;
48809;SDS011;40070;47.322;18.784;2024-01-07T09:47:54;2.82;;;1.74;;
48809;SDS011;40070;47.322;18.784;2024-01-07T09:49:55;3.02;;;1.57;;
48809;SDS011;40070;47.322;18.784;2024-01-07T09:51:59;2.99;;;1.32;;
48809;SDS011;40070;47.322;18.784;2024-01-07T09:54:02;2.94;;;1.57;;
48809;SDS011;40070;47.322;18.784;2024-01-07T09:56:19;2.46;;;1.57;;
48809;SDS011;40070;47.322;18.784;2024-01-07T09:58:06;5.57;;;2.07;;
48809;SDS011;40070;47.322;18.784;2024-01-07T10:00:07;3.20;;;1.81;;
48809;SDS011;40070;47.322;18.784;2024-01-07T10:02:08;2.85;;;1.40;;
48809;SDS011;40070;47.322;18.784;2024-01-07T10:04:09;2.66;;;1.65;;
48809;SDS011;40070;47.322;18.784;2024-01-07T10:06:10;2.43;;;1.55;;
48809;SDS011;40070;47.322;18.784;2024-01-07T10:08:12;2.02;;;1.30;;
48809;SDS011;40070;47.322;18.784;2024-01-07T10:10:13;2.84;;;1.39;;
48809;SDS011;40070;47.322;18.784;2024-01-07T10:12:15;3.28;;;1.81;;
48809;SDS011;40070;47.322;18.784;2024-01-07T10:14:16;2.93;;;1.40;;
48809;SDS011;40070;47.322;18.784;2024-01-07T10:16:18;3.32;;;1.50;;
48809;SDS011;40070;47.322;18.784;2024-01-07T10:18:19;3.20;;;1.51;;
48809;SDS011;40070;47.322;18.784;2024-01-07T10:20:20;2.49;;;1.58;;
48809;SDS011;40070;47.322;18.784;2024-01-07T10:22:30;3.27;;;1.65;;
48809;SDS011;40070;47.322;18.784;2024-01-07T10:24:41;2.48;;;1.58;;
48809;SDS011;40070;47.322;18.784;2024-01-07T10:26:42;2.61;;;1.49;;
48809;SDS011;40070;47.322;18.784;2024-01-07T10:28:43;4.07;;;2.00;;
48809;SDS011;40070;47.322;18.784;2024-01-07T10:30:49;2.98;;;2.00;;
48809;SDS011;40070;47.322;18.784;2024-01-07T10:32:50;3.54;;;2.01;;
48809;SDS011;40070;47.322;18.784;2024-01-07T10:34:54;2.41;;;1.58;;
48809;SDS011;40070;47.322;18.784;2024-01-07T10:36:55;3.50;;;1.91;;
48809;SDS011;40070;47.322;18.784;2024-01-07T10:38:56;2.61;;;1.74;;
48809;SDS011;40070;47.322;18.784;2024-01-07T10:40:58;3.48;;;1.73;;
48809;SDS011;40070;47.322;18.784;2024-01-07T10:42:59;3.29;;;1.90;;
48809;SDS011;40070;47.322;18.784;2024-01-07T10:45:04;3.76;;;2.07;;
48809;SDS011;40070;47.322;18.784;2024-01-07T10:47:06;3.26;;;2.05;;
48809;SDS011;40070;47.322;18.784;2024-01-07T10:49:12;3.02;;;1.91;;
48809;SDS011;40070;47.322;18.784;2024-01-07T10:51:11;2.99;;;1.56;;
48809;SDS011;40070;47.322;18.784;2024-01-07T10:53:13;4.00;;;1.97;;
48809;SDS011;40070;47.322;18.784;2024-01-07T10:55:13;3.50;;;2.12;;
48809;SDS011;40070;47.322;18.784;2024-01-07T10:57:21;2.71;;;1.64;;
48809;SDS011;40070;47.322;18.784;2024-01-07T10:59:18;3.01;;;1.65;;
48809;SDS011;40070;47.322;18.784;2024-01-07T11:01:19;2.26;;;1.57;;
48809;SDS011;40070;47.322;18.784;2024-01-07T11:03:35;2.88;;;1.90;;
48809;SDS011;40070;47.322;18.784;2024-01-07T11:05:53;3.70;;;1.57;;
48809;SDS011;40070;47.322;18.784;2024-01-07T11:08:23;2.75;;;1.41;;
48809;SDS011;40070;47.322;18.784;2024-01-07T11:10:55;2.46;;;1.57;;
48809;SDS011;40070;47.322;18.784;2024-01-07T11:12:10;2.98;;;1.39;;
48809;SDS011;40070;47.322;18.784;2024-01-07T11:16:40;2.61;;;1.66;;
48809;SDS011;40070;47.322;18.784;2024-01-07T11:18:23;2.64;;;1.56;;
48809;SDS011;40070;47.322;18.784;2024-01-07T11:20:25;3.96;;;1.90;;
48809;SDS011;40070;47.322;18.784;2024-01-07T11:22:41;2.95;;;1.49;;
48809;SDS011;40070;47.322;18.784;2024-01-07T11:24:57;3.13;;;1.68;;
48809;SDS011;40070;47.322;18.784;2024-01-07T11:26:55;2.64;;;1.59;;
48809;SDS011;40070;47.322;18.784;2024-01-07T11:29:14;2.33;;;1.24;;
48809;SDS011;40070;47.322;18.784;2024-01-07T11:31:17;3.88;;;1.48;;
48809;SDS011;40070;47.322;18.784;2024-01-07T11:33:17;3.56;;;1.98;;
48809;SDS011;40070;47.322;18.784;2024-01-07T11:35:21;2.82;;;1.74;;
48809;SDS011;40070;47.322;18.784;2024-01-07T11:37:19;3.62;;;1.59;;
48809;SDS011;40070;47.322;18.784;2024-01-07T11:39:20;2.64;;;1.50;;
48809;SDS011;40070;47.322;18.784;2024-01-07T11:41:22;3.09;;;1.74;;
48809;SDS011;40070;47.322;18.784;2024-01-07T11:43:23;6.00;;;2.14;;
48809;SDS011;40070;47.322;18.784;2024-01-07T11:45:25;2.57;;;1.59;;
48809;SDS011;40070;47.322;18.784;2024-01-07T11:47:27;3.33;;;1.84;;
48809;SDS011;40070;47.322;18.784;2024-01-07T11:49:29;2.64;;;1.17;;
48809;SDS011;40070;47.322;18.784;2024-01-07T11:51:30;2.39;;;1.48;;
48809;SDS011;40070;47.322;18.784;2024-01-07T11:53:31;3.63;;;1.74;;
48809;SDS011;40070;47.322;18.784;2024-01-07T11:55:32;1.93;;;1.17;;
48809;SDS011;40070;47.322;18.784;2024-01-07T11:57:34;2.36;;;1.42;;
48809;SDS011;40070;47.322;18.784;2024-01-07T11:59:35;2.14;;;1.50;;